createdAt,value
2022-09-11T13:17:18.938Z,10.80
2022-09-11T13:19:46.945Z,10.70
2022-09-11T13:22:31.359Z,10.60
2022-09-11T13:25:08.734Z,10.60
2022-09-11T13:27:44.829Z,10.50
2022-09-11T13:30:19.482Z,10.60
2022-09-11T13:32:49.292Z,10.60
2022-09-11T13:35:27.820Z,11.60
2022-09-11T13:38:13.646Z,10.60
2022-09-11T13:40:47.130Z,10.60
2022-09-11T13:43:22.914Z,10.60
2022-09-11T13:46:12.114Z,10.60
2022-09-11T13:48:39.790Z,10.60
2022-09-11T13:51:12.899Z,10.60
2022-09-11T13:53:43.186Z,10.60
2022-09-11T13:56:47.244Z,10.70
2022-09-11T13:59:41.798Z,10.70
2022-09-11T14:02:46.766Z,10.70
2022-09-11T14:05:27.649Z,10.70
2022-09-11T14:07:56.512Z,10.70
2022-09-11T14:10:31.062Z,10.70
2022-09-11T14:13:10.771Z,10.90
2022-09-11T14:16:27.929Z,10.70
2022-09-11T14:19:26.780Z,10.70
2022-09-11T14:21:54.787Z,10.70
2022-09-11T14:24:32.836Z,10.70
2022-09-11T14:27:02.159Z,10.70
2022-09-11T14:29:31.767Z,10.70
2022-09-11T14:32:32.495Z,10.70
2022-09-11T14:35:06.556Z,10.70
2022-09-11T14:37:41.551Z,10.70
2022-09-11T14:40:16.689Z,10.70
2022-09-11T14:42:45.976Z,10.70
2022-09-11T14:45:25.972Z,10.70
2022-09-11T14:47:53.936Z,10.70
2022-09-11T14:50:21.908Z,10.70
2022-09-11T14:55:20.323Z,10.70
2022-09-11T15:00:19.299Z,10.60
2022-09-11T15:05:17.302Z,10.70
2022-09-11T15:07:45.682Z,10.60
2022-09-11T15:10:14.435Z,10.60
2022-09-11T15:15:11.844Z,10.60
2022-09-11T15:17:41.314Z,10.60
2022-09-11T15:20:10.342Z,10.60
2022-09-11T15:22:38.604Z,10.50
2022-09-11T15:25:07.179Z,10.50
2022-09-11T15:30:06.498Z,10.50
2022-09-11T15:32:34.483Z,10.50
2022-09-11T15:35:02.489Z,10.50
2022-09-11T15:37:30.248Z,10.50
2022-09-11T15:39:58.149Z,10.50
2022-09-11T15:42:25.897Z,10.40
2022-09-11T15:44:56.169Z,10.50
2022-09-11T15:47:26.365Z,10.40
2022-09-11T15:49:54.178Z,10.40
2022-09-11T15:54:51.017Z,10.40
2022-09-11T15:57:20.728Z,10.40
2022-09-11T15:59:50.045Z,10.40
2022-09-11T16:02:18.794Z,10.40
2022-09-11T16:04:51.590Z,10.40
2022-09-11T16:07:23.671Z,10.40
2022-09-11T16:09:56.015Z,10.40
2022-09-11T16:12:26.518Z,10.40
2022-09-11T16:14:54.584Z,10.40
2022-09-11T16:22:22.561Z,10.40
2022-09-11T16:24:50.516Z,10.40
2022-09-11T16:27:18.640Z,10.40
2022-09-11T16:32:38.196Z,10.40
2022-09-11T16:35:09.040Z,10.40
2022-09-11T16:37:38.578Z,10.40
2022-09-11T16:40:06.940Z,10.40
2022-09-11T16:47:33.506Z,10.40
2022-09-11T16:55:10.132Z,10.40
2022-09-11T17:00:08.284Z,10.40
2022-09-11T17:02:37.522Z,10.40
2022-09-11T17:05:08.240Z,10.40
2022-09-11T17:07:37.906Z,10.40
2022-09-11T17:10:06.263Z,10.40
2022-09-11T17:12:34.152Z,10.40
2022-09-11T17:15:02.100Z,10.40
2022-09-11T17:17:31.354Z,10.40
2022-09-11T17:19:59.487Z,10.40
2022-09-11T17:24:55.334Z,10.40
2022-09-11T17:27:23.304Z,10.40
2022-09-11T17:29:51.378Z,10.40
2022-09-11T17:34:58.695Z,10.40
2022-09-11T17:37:27.136Z,10.40
2022-09-11T17:39:58.792Z,10.30
2022-09-11T17:42:32.432Z,10.40
2022-09-11T17:45:00.961Z,10.40
2022-09-11T17:47:34.601Z,10.40
2022-09-11T17:50:02.321Z,10.40
2022-09-11T17:52:32.118Z,10.40
2022-09-11T17:54:59.850Z,10.40
2022-09-11T17:57:27.549Z,10.40
2022-09-11T17:59:56.741Z,10.40
2022-09-11T18:02:24.919Z,10.40
2022-09-11T18:04:52.787Z,10.40
2022-09-11T18:07:20.752Z,10.40
2022-09-11T18:14:48.298Z,10.40
2022-09-11T18:17:16.010Z,10.40
2022-09-11T18:19:44.268Z,10.40
2022-09-11T18:22:12.414Z,10.40
2022-09-11T18:27:11.711Z,10.40
2022-09-11T18:32:11.132Z,10.40
2022-09-11T18:34:39.153Z,10.40
2022-09-11T18:37:07.725Z,10.40
2022-09-11T18:39:38.445Z,10.40
2022-09-11T18:42:07.188Z,10.40
2022-09-11T18:44:35.114Z,10.40
2022-09-11T18:47:02.951Z,10.40
2022-09-11T18:49:30.758Z,10.40
2022-09-11T18:52:01.077Z,10.40
2022-09-11T18:54:30.148Z,10.40
2022-09-11T18:57:01.012Z,10.40
2022-09-11T19:01:57.266Z,10.40
2022-09-11T19:06:53.784Z,10.40
2022-09-11T19:09:21.655Z,10.40
2022-09-11T19:11:49.738Z,10.40
2022-09-11T19:14:17.862Z,10.40
2022-09-11T19:21:43.240Z,10.40
2022-09-11T19:24:11.157Z,10.40
2022-09-11T19:26:41.034Z,10.40
2022-09-11T19:29:09.209Z,10.40
2022-09-11T19:31:39.447Z,10.40
2022-09-11T19:34:08.226Z,10.40
2022-09-11T19:36:37.217Z,10.40
2022-09-11T19:39:06.117Z,10.40
2022-09-11T19:41:38.723Z,10.40
2022-09-11T19:44:08.598Z,10.40
2022-09-11T19:46:38.273Z,10.40
2022-09-11T19:49:07.247Z,10.40
2022-09-11T19:51:41.411Z,10.40
2022-09-11T19:54:10.909Z,10.40
2022-09-11T19:56:42.596Z,10.40
2022-09-11T19:59:12.807Z,10.40
2022-09-11T20:01:40.671Z,10.40
2022-09-11T20:04:09.522Z,10.40
2022-09-11T20:06:37.588Z,10.40
2022-09-11T20:11:54.096Z,10.40
2022-09-11T20:14:21.886Z,10.40
2022-09-11T20:16:49.854Z,10.40
2022-09-11T20:19:18.132Z,10.40
2022-09-11T20:21:45.887Z,10.30
2022-09-11T20:24:15.051Z,10.40
2022-09-11T20:26:43.139Z,10.30
2022-09-11T20:29:15.450Z,10.40
2022-09-11T20:31:48.691Z,10.40
2022-09-11T20:34:22.090Z,10.30
2022-09-11T20:36:50.035Z,10.30
2022-09-11T20:39:17.715Z,10.30
2022-09-11T20:41:45.487Z,10.30
2022-09-11T20:44:13.292Z,10.30
2022-09-11T20:46:43.826Z,10.30
2022-09-11T20:49:12.223Z,10.30
2022-09-11T20:51:41.075Z,10.30
2022-09-11T20:54:09.344Z,10.30
2022-09-11T20:56:37.391Z,10.30
2022-09-11T21:01:33.427Z,10.30
2022-09-11T21:04:02.922Z,10.30
2022-09-11T21:06:32.387Z,10.30
2022-09-11T21:09:06.011Z,10.30
2022-09-11T21:11:35.255Z,10.30
2022-09-11T21:14:02.789Z,10.30
2022-09-11T21:16:31.101Z,10.30
2022-09-11T21:19:01.313Z,10.20
2022-09-11T21:21:29.774Z,10.30
2022-09-11T21:23:59.430Z,10.20
2022-09-11T21:26:28.885Z,10.30
2022-09-11T21:29:01.286Z,10.30
2022-09-11T21:31:29.386Z,10.30
2022-09-11T21:33:57.537Z,10.20
2022-09-11T21:36:25.568Z,10.30
2022-09-11T21:38:53.803Z,10.20
2022-09-11T21:41:22.988Z,10.20
2022-09-11T21:43:50.885Z,10.20
2022-09-11T21:46:18.666Z,10.20
2022-09-11T21:48:46.704Z,10.20
2022-09-11T21:51:16.657Z,10.20
2022-09-11T21:53:46.386Z,10.20
2022-09-11T21:56:22.447Z,10.20
2022-09-11T21:58:51.300Z,10.20
2022-09-11T22:01:20.075Z,10.30
2022-09-11T22:03:47.971Z,10.20
2022-09-11T22:06:15.966Z,10.20
2022-09-11T22:08:46.796Z,10.20
2022-09-11T22:11:15.159Z,10.20
2022-09-11T22:13:43.322Z,10.20
2022-09-11T22:16:14.079Z,10.20
2022-09-11T22:18:42.348Z,10.20
2022-09-11T22:21:10.634Z,10.20
2022-09-11T22:23:38.725Z,10.20
2022-09-11T22:26:15.644Z,10.20
2022-09-11T22:28:43.853Z,10.20
2022-09-11T22:31:24.039Z,10.10
2022-09-11T22:33:54.246Z,10.20
2022-09-11T22:36:23.794Z,10.20
2022-09-11T22:38:51.772Z,10.10
2022-09-11T22:43:50.280Z,10.10
2022-09-11T22:46:20.548Z,10.10
2022-09-11T22:48:48.458Z,10.10
2022-09-11T22:51:16.820Z,10.10
2022-09-11T22:53:44.873Z,10.10
2022-09-11T22:56:16.452Z,10.10
2022-09-11T22:58:44.221Z,10.10
2022-09-11T23:01:19.746Z,10.10
2022-09-11T23:03:53.823Z,10.10
2022-09-11T23:06:42.227Z,10.20
2022-09-11T23:09:16.849Z,10.10
2022-09-11T23:11:46.149Z,10.00
2022-09-11T23:14:14.716Z,10.10
2022-09-11T23:16:45.478Z,10.10
2022-09-11T23:19:14.172Z,10.10
2022-09-11T23:21:42.320Z,10.10
2022-09-11T23:24:14.520Z,10.10
2022-09-11T23:26:43.512Z,10.10
2022-09-11T23:29:12.258Z,10.10
2022-09-11T23:31:40.321Z,10.10
2022-09-11T23:34:09.348Z,10.10
2022-09-11T23:36:37.180Z,10.10
2022-09-11T23:39:05.424Z,10.10
2022-09-11T23:44:02.533Z,10.10
2022-09-11T23:46:32.853Z,10.00
2022-09-11T23:49:00.457Z,10.00
2022-09-11T23:51:28.444Z,10.00
2022-09-11T23:58:52.501Z,10.10
